sensor_id;sensor_type;location;lat;lon;timestamp;temperature;humidity
3246;DHT22;1635;48.000;10.582;2022-10-23T00:01:42;8.00;99.90
3246;DHT22;1635;48.000;10.582;2022-10-23T00:04:20;8.00;99.90
3246;DHT22;1635;48.000;10.582;2022-10-23T00:06:48;8.10;99.90
3246;DHT22;1635;48.000;10.582;2022-10-23T00:09:20;8.10;99.90
3246;DHT22;1635;48.000;10.582;2022-10-23T00:11:51;8.20;99.90
3246;DHT22;1635;48.000;10.582;2022-10-23T00:14:22;8.20;99.90
3246;DHT22;1635;48.000;10.582;2022-10-23T00:16:50;8.20;99.90
3246;DHT22;1635;48.000;10.582;2022-10-23T00:19:18;8.10;99.90
3246;DHT22;1635;48.000;10.582;2022-10-23T00:21:46;8.00;99.90
3246;DHT22;1635;48.000;10.582;2022-10-23T00:24:14;7.90;99.90
3246;DHT22;1635;48.000;10.582;2022-10-23T00:26:42;7.80;99.90
3246;DHT22;1635;48.000;10.582;2022-10-23T00:29:11;7.80;99.90
3246;DHT22;1635;48.000;10.582;2022-10-23T00:31:39;7.80;99.90
3246;DHT22;1635;48.000;10.582;2022-10-23T00:34:07;7.70;99.90
3246;DHT22;1635;48.000;10.582;2022-10-23T00:36:36;7.70;99.90
3246;DHT22;1635;48.000;10.582;2022-10-23T00:39:04;7.70;99.90
3246;DHT22;1635;48.000;10.582;2022-10-23T00:41:32;7.70;99.90
3246;DHT22;1635;48.000;10.582;2022-10-23T00:44:05;7.60;99.90
3246;DHT22;1635;48.000;10.582;2022-10-23T00:46:35;7.60;99.90
3246;DHT22;1635;48.000;10.582;2022-10-23T00:49:04;7.60;99.90
3246;DHT22;1635;48.000;10.582;2022-10-23T00:51:43;7.50;99.90
3246;DHT22;1635;48.000;10.582;2022-10-23T00:54:13;7.40;99.90
3246;DHT22;1635;48.000;10.582;2022-10-23T00:56:55;7.40;99.90
3246;DHT22;1635;48.000;10.582;2022-10-23T00:59:26;7.40;99.90
3246;DHT22;1635;48.000;10.582;2022-10-23T01:01:55;7.40;99.90
3246;DHT22;1635;48.000;10.582;2022-10-23T01:04:27;7.30;99.90
3246;DHT22;1635;48.000;10.582;2022-10-23T01:07:11;7.30;99.90
3246;DHT22;1635;48.000;10.582;2022-10-23T01:10:26;7.30;99.90
3246;DHT22;1635;48.000;10.582;2022-10-23T01:13:16;7.30;99.90
3246;DHT22;1635;48.000;10.582;2022-10-23T01:16:08;7.20;99.90
3246;DHT22;1635;48.000;10.582;2022-10-23T01:18:58;7.20;99.90
3246;DHT22;1635;48.000;10.582;2022-10-23T01:21:48;7.20;99.90
3246;DHT22;1635;48.000;10.582;2022-10-23T01:24:58;7.20;99.90
3246;DHT22;1635;48.000;10.582;2022-10-23T01:27:34;7.20;99.90
3246;DHT22;1635;48.000;10.582;2022-10-23T01:30:11;7.20;99.90
3246;DHT22;1635;48.000;10.582;2022-10-23T01:32:59;7.20;99.90
3246;DHT22;1635;48.000;10.582;2022-10-23T01:35:43;7.20;99.90
3246;DHT22;1635;48.000;10.582;2022-10-23T01:38:34;7.20;99.90
3246;DHT22;1635;48.000;10.582;2022-10-23T01:44:10;7.20;99.90
3246;DHT22;1635;48.000;10.582;2022-10-23T01:46:42;7.20;99.90
3246;DHT22;1635;48.000;10.582;2022-10-23T01:49:13;7.10;99.90
3246;DHT22;1635;48.000;10.582;2022-10-23T01:51:45;7.10;99.90
3246;DHT22;1635;48.000;10.582;2022-10-23T01:54:17;7.10;99.90
3246;DHT22;1635;48.000;10.582;2022-10-23T01:56:47;7.10;99.90
3246;DHT22;1635;48.000;10.582;2022-10-23T01:59:43;7.10;99.90
3246;DHT22;1635;48.000;10.582;2022-10-23T02:02:15;7.10;99.90
3246;DHT22;1635;48.000;10.582;2022-10-23T02:08:15;7.10;99.90
3246;DHT22;1635;48.000;10.582;2022-10-23T02:11:14;7.10;99.90
3246;DHT22;1635;48.000;10.582;2022-10-23T02:17:58;7.00;99.90
3246;DHT22;1635;48.000;10.582;2022-10-23T02:20:46;7.00;99.90
3246;DHT22;1635;48.000;10.582;2022-10-23T02:23:36;6.90;99.90
3246;DHT22;1635;48.000;10.582;2022-10-23T02:26:16;6.90;99.90
3246;DHT22;1635;48.000;10.582;2022-10-23T02:28:53;6.80;99.90
3246;DHT22;1635;48.000;10.582;2022-10-23T02:31:22;6.80;99.90
3246;DHT22;1635;48.000;10.582;2022-10-23T02:33:51;6.70;99.90
3246;DHT22;1635;48.000;10.582;2022-10-23T02:36:19;6.60;99.90
3246;DHT22;1635;48.000;10.582;2022-10-23T02:38:49;6.60;99.90
3246;DHT22;1635;48.000;10.582;2022-10-23T02:41:37;6.50;99.90
3246;DHT22;1635;48.000;10.582;2022-10-23T02:53:32;6.60;99.90
3246;DHT22;1635;48.000;10.582;2022-10-23T02:59:10;6.70;99.90
3246;DHT22;1635;48.000;10.582;2022-10-23T03:04:41;6.80;99.90
3246;DHT22;1635;48.000;10.582;2022-10-23T03:07:13;6.80;99.90
3246;DHT22;1635;48.000;10.582;2022-10-23T03:09:42;6.90;99.90
3246;DHT22;1635;48.000;10.582;2022-10-23T03:12:10;6.90;99.90
3246;DHT22;1635;48.000;10.582;2022-10-23T03:14:37;7.00;99.90
3246;DHT22;1635;48.000;10.582;2022-10-23T03:17:08;7.00;99.90
3246;DHT22;1635;48.000;10.582;2022-10-23T03:19:36;7.00;99.90
3246;DHT22;1635;48.000;10.582;2022-10-23T03:22:04;7.00;99.90
3246;DHT22;1635;48.000;10.582;2022-10-23T03:24:31;7.00;99.90
3246;DHT22;1635;48.000;10.582;2022-10-23T03:26:59;7.00;99.90
3246;DHT22;1635;48.000;10.582;2022-10-23T03:29:31;6.90;99.90
3246;DHT22;1635;48.000;10.582;2022-10-23T03:31:59;6.90;99.90
3246;DHT22;1635;48.000;10.582;2022-10-23T03:34:27;6.90;99.90
3246;DHT22;1635;48.000;10.582;2022-10-23T03:36:55;6.90;99.90
3246;DHT22;1635;48.000;10.582;2022-10-23T03:39:22;6.90;99.90
3246;DHT22;1635;48.000;10.582;2022-10-23T03:41:50;7.00;99.90
3246;DHT22;1635;48.000;10.582;2022-10-23T03:44:17;7.00;99.90
3246;DHT22;1635;48.000;10.582;2022-10-23T03:46:45;7.00;99.90
3246;DHT22;1635;48.000;10.582;2022-10-23T03:49:13;7.00;99.90
3246;DHT22;1635;48.000;10.582;2022-10-23T03:51:44;7.00;99.90
3246;DHT22;1635;48.000;10.582;2022-10-23T03:54:25;7.00;99.90
3246;DHT22;1635;48.000;10.582;2022-10-23T03:56:53;7.00;99.90
3246;DHT22;1635;48.000;10.582;2022-10-23T03:59:26;7.00;99.90
3246;DHT22;1635;48.000;10.582;2022-10-23T04:01:54;7.10;99.90
3246;DHT22;1635;48.000;10.582;2022-10-23T04:04:24;7.10;99.90
3246;DHT22;1635;48.000;10.582;2022-10-23T04:06:53;7.10;99.90
3246;DHT22;1635;48.000;10.582;2022-10-23T04:09:21;7.10;99.90
3246;DHT22;1635;48.000;10.582;2022-10-23T04:11:49;7.10;99.90
3246;DHT22;1635;48.000;10.582;2022-10-23T04:14:16;7.10;99.90
3246;DHT22;1635;48.000;10.582;2022-10-23T04:16:44;7.10;99.90
3246;DHT22;1635;48.000;10.582;2022-10-23T04:19:12;7.10;99.90
3246;DHT22;1635;48.000;10.582;2022-10-23T04:21:42;7.10;99.90
3246;DHT22;1635;48.000;10.582;2022-10-23T04:24:11;7.10;99.90
3246;DHT22;1635;48.000;10.582;2022-10-23T04:26:39;7.20;99.90
3246;DHT22;1635;48.000;10.582;2022-10-23T04:29:10;7.20;99.90
3246;DHT22;1635;48.000;10.582;2022-10-23T04:31:38;7.20;99.90
3246;DHT22;1635;48.000;10.582;2022-10-23T04:34:06;7.10;99.90
3246;DHT22;1635;48.000;10.582;2022-10-23T04:36:35;7.10;99.90
3246;DHT22;1635;48.000;10.582;2022-10-23T04:39:10;7.10;99.90
3246;DHT22;1635;48.000;10.582;2022-10-23T04:41:38;7.10;99.90
3246;DHT22;1635;48.000;10.582;2022-10-23T04:44:07;7.00;99.90
3246;DHT22;1635;48.000;10.582;2022-10-23T04:46:37;7.00;99.90
3246;DHT22;1635;48.000;10.582;2022-10-23T04:49:05;7.00;99.90
3246;DHT22;1635;48.000;10.582;2022-10-23T04:52:04;7.00;99.90
3246;DHT22;1635;48.000;10.582;2022-10-23T04:54:49;6.90;99.90
3246;DHT22;1635;48.000;10.582;2022-10-23T04:57:40;6.90;99.90
3246;DHT22;1635;48.000;10.582;2022-10-23T05:00:12;6.90;99.90
3246;DHT22;1635;48.000;10.582;2022-10-23T05:02:51;6.90;99.90
3246;DHT22;1635;48.000;10.582;2022-10-23T05:05:22;6.90;99.90
3246;DHT22;1635;48.000;10.582;2022-10-23T05:08:03;6.80;99.90
3246;DHT22;1635;48.000;10.582;2022-10-23T05:10:47;6.80;99.90
3246;DHT22;1635;48.000;10.582;2022-10-23T05:13:17;6.80;99.90
3246;DHT22;1635;48.000;10.582;2022-10-23T05:15:50;6.80;99.90
3246;DHT22;1635;48.000;10.582;2022-10-23T05:18:23;6.70;99.90
3246;DHT22;1635;48.000;10.582;2022-10-23T05:21:01;6.80;99.90
3246;DHT22;1635;48.000;10.582;2022-10-23T05:23:32;6.70;99.90
3246;DHT22;1635;48.000;10.582;2022-10-23T05:26:03;6.80;99.90
3246;DHT22;1635;48.000;10.582;2022-10-23T05:28:32;6.80;99.90
3246;DHT22;1635;48.000;10.582;2022-10-23T05:31:02;6.80;99.90
3246;DHT22;1635;48.000;10.582;2022-10-23T05:33:30;6.70;99.90
3246;DHT22;1635;48.000;10.582;2022-10-23T05:36:00;6.70;99.90
3246;DHT22;1635;48.000;10.582;2022-10-23T05:38:30;6.70;99.90
3246;DHT22;1635;48.000;10.582;2022-10-23T05:41:05;6.70;99.90
3246;DHT22;1635;48.000;10.582;2022-10-23T05:43:32;6.70;99.90
3246;DHT22;1635;48.000;10.582;2022-10-23T05:46:10;6.70;99.90
3246;DHT22;1635;48.000;10.582;2022-10-23T05:49:07;6.70;99.90
3246;DHT22;1635;48.000;10.582;2022-10-23T05:52:10;6.70;99.90
3246;DHT22;1635;48.000;10.582;2022-10-23T05:54:51;6.60;99.90
3246;DHT22;1635;48.000;10.582;2022-10-23T05:57:42;6.60;99.90
3246;DHT22;1635;48.000;10.582;2022-10-23T06:00:12;6.60;99.90
3246;DHT22;1635;48.000;10.582;2022-10-23T06:02:41;6.70;99.90
3246;DHT22;1635;48.000;10.582;2022-10-23T06:05:25;6.80;99.90
3246;DHT22;1635;48.000;10.582;2022-10-23T06:08:13;6.80;99.90
3246;DHT22;1635;48.000;10.582;2022-10-23T06:10:41;6.90;99.90
3246;DHT22;1635;48.000;10.582;2022-10-23T06:13:11;6.90;99.90
3246;DHT22;1635;48.000;10.582;2022-10-23T06:15:39;6.90;99.90
3246;DHT22;1635;48.000;10.582;2022-10-23T06:18:26;6.90;99.90
3246;DHT22;1635;48.000;10.582;2022-10-23T06:21:05;7.00;99.90
3246;DHT22;1635;48.000;10.582;2022-10-23T06:23:36;7.00;99.90
3246;DHT22;1635;48.000;10.582;2022-10-23T06:26:16;7.10;99.90
3246;DHT22;1635;48.000;10.582;2022-10-23T06:28:57;7.10;99.90
3246;DHT22;1635;48.000;10.582;2022-10-23T06:31:25;7.10;99.90
3246;DHT22;1635;48.000;10.582;2022-10-23T06:33:58;7.10;99.90
3246;DHT22;1635;48.000;10.582;2022-10-23T06:36:26;7.10;99.90
3246;DHT22;1635;48.000;10.582;2022-10-23T06:39:03;7.10;99.90
3246;DHT22;1635;48.000;10.582;2022-10-23T06:41:49;7.10;99.90
3246;DHT22;1635;48.000;10.582;2022-10-23T06:44:37;7.20;99.90
3246;DHT22;1635;48.000;10.582;2022-10-23T06:47:09;7.30;99.90
3246;DHT22;1635;48.000;10.582;2022-10-23T06:49:57;7.40;99.90
3246;DHT22;1635;48.000;10.582;2022-10-23T06:52:24;7.50;99.90
3246;DHT22;1635;48.000;10.582;2022-10-23T06:55:14;7.70;99.90
3246;DHT22;1635;48.000;10.582;2022-10-23T06:57:43;7.80;99.90
3246;DHT22;1635;48.000;10.582;2022-10-23T07:00:12;7.90;99.90
3246;DHT22;1635;48.000;10.582;2022-10-23T07:02:48;7.90;99.90
3246;DHT22;1635;48.000;10.582;2022-10-23T07:05:16;8.00;99.90
3246;DHT22;1635;48.000;10.582;2022-10-23T07:07:44;8.10;99.90
3246;DHT22;1635;48.000;10.582;2022-10-23T07:10:18;8.20;99.90
3246;DHT22;1635;48.000;10.582;2022-10-23T07:12:51;8.30;99.90
3246;DHT22;1635;48.000;10.582;2022-10-23T07:15:37;8.40;99.90
3246;DHT22;1635;48.000;10.582;2022-10-23T07:18:08;8.50;99.90
3246;DHT22;1635;48.000;10.582;2022-10-23T07:21:10;8.70;99.90
3246;DHT22;1635;48.000;10.582;2022-10-23T07:23:39;8.90;99.90
3246;DHT22;1635;48.000;10.582;2022-10-23T07:26:13;9.20;99.90
3246;DHT22;1635;48.000;10.582;2022-10-23T07:28:43;9.50;99.90
3246;DHT22;1635;48.000;10.582;2022-10-23T07:31:13;9.70;99.90
3246;DHT22;1635;48.000;10.582;2022-10-23T07:33:59;9.90;99.90
3246;DHT22;1635;48.000;10.582;2022-10-23T07:36:27;10.00;99.90
3246;DHT22;1635;48.000;10.582;2022-10-23T07:38:54;10.00;99.90
3246;DHT22;1635;48.000;10.582;2022-10-23T07:41:23;10.30;99.90
3246;DHT22;1635;48.000;10.582;2022-10-23T07:43:51;10.80;99.90
3246;DHT22;1635;48.000;10.582;2022-10-23T07:46:19;11.30;99.90
3246;DHT22;1635;48.000;10.582;2022-10-23T07:48:47;11.90;99.90
3246;DHT22;1635;48.000;10.582;2022-10-23T07:51:15;12.40;99.90
3246;DHT22;1635;48.000;10.582;2022-10-23T07:53:51;12.70;99.90
3246;DHT22;1635;48.000;10.582;2022-10-23T07:56:50;13.20;99.90
3246;DHT22;1635;48.000;10.582;2022-10-23T07:59:26;13.50;99.90
3246;DHT22;1635;48.000;10.582;2022-10-23T08:01:54;13.90;99.90
3246;DHT22;1635;48.000;10.582;2022-10-23T08:04:39;14.40;99.90
3246;DHT22;1635;48.000;10.582;2022-10-23T08:07:27;14.70;99.90
3246;DHT22;1635;48.000;10.582;2022-10-23T08:09:57;14.90;99.90
3246;DHT22;1635;48.000;10.582;2022-10-23T08:12:25;15.20;99.90
3246;DHT22;1635;48.000;10.582;2022-10-23T08:14:54;15.60;99.90
3246;DHT22;1635;48.000;10.582;2022-10-23T08:17:25;15.70;99.90
3246;DHT22;1635;48.000;10.582;2022-10-23T08:20:05;16.20;99.90
3246;DHT22;1635;48.000;10.582;2022-10-23T08:22:38;16.40;99.90
3246;DHT22;1635;48.000;10.582;2022-10-23T08:25:08;16.60;99.90
3246;DHT22;1635;48.000;10.582;2022-10-23T08:27:35;17.10;99.90
3246;DHT22;1635;48.000;10.582;2022-10-23T08:30:04;17.70;99.90
3246;DHT22;1635;48.000;10.582;2022-10-23T08:32:32;18.30;99.90
3246;DHT22;1635;48.000;10.582;2022-10-23T08:35:02;18.70;99.90
3246;DHT22;1635;48.000;10.582;2022-10-23T08:37:31;18.90;99.90
3246;DHT22;1635;48.000;10.582;2022-10-23T08:39:59;19.50;99.90
3246;DHT22;1635;48.000;10.582;2022-10-23T08:42:56;20.00;99.90
3246;DHT22;1635;48.000;10.582;2022-10-23T08:45:44;20.70;99.90
3246;DHT22;1635;48.000;10.582;2022-10-23T08:48:37;21.00;99.90
3246;DHT22;1635;48.000;10.582;2022-10-23T08:51:41;21.10;99.90
3246;DHT22;1635;48.000;10.582;2022-10-23T08:54:16;21.20;99.90
3246;DHT22;1635;48.000;10.582;2022-10-23T08:56:56;21.40;99.90
3246;DHT22;1635;48.000;10.582;2022-10-23T08:59:28;21.60;99.90
3246;DHT22;1635;48.000;10.582;2022-10-23T09:04:34;22.50;99.90
3246;DHT22;1635;48.000;10.582;2022-10-23T09:18:54;21.40;99.90
3246;DHT22;1635;48.000;10.582;2022-10-23T09:21:29;20.80;99.90
3246;DHT22;1635;48.000;10.582;2022-10-23T09:24:13;20.30;99.90
3246;DHT22;1635;48.000;10.582;2022-10-23T09:26:45;20.00;99.90
3246;DHT22;1635;48.000;10.582;2022-10-23T09:29:29;19.50;99.90
3246;DHT22;1635;48.000;10.582;2022-10-23T09:31:59;19.20;99.90
3246;DHT22;1635;48.000;10.582;2022-10-23T09:34:30;19.00;99.90
3246;DHT22;1635;48.000;10.582;2022-10-23T09:37:24;18.90;99.90
3246;DHT22;1635;48.000;10.582;2022-10-23T09:40:21;18.80;99.90
3246;DHT22;1635;48.000;10.582;2022-10-23T09:43:16;18.70;99.90
3246;DHT22;1635;48.000;10.582;2022-10-23T09:45:59;18.70;99.90
3246;DHT22;1635;48.000;10.582;2022-10-23T09:48:33;18.70;99.90
3246;DHT22;1635;48.000;10.582;2022-10-23T09:51:18;18.60;99.90
3246;DHT22;1635;48.000;10.582;2022-10-23T09:53:57;18.70;99.90
3246;DHT22;1635;48.000;10.582;2022-10-23T09:56:34;18.70;99.90
3246;DHT22;1635;48.000;10.582;2022-10-23T10:01:56;18.80;99.90
3246;DHT22;1635;48.000;10.582;2022-10-23T10:05:36;19.00;99.90
3246;DHT22;1635;48.000;10.582;2022-10-23T10:12:41;19.00;99.90
3246;DHT22;1635;48.000;10.582;2022-10-23T10:14:38;18.90;99.90
3246;DHT22;1635;48.000;10.582;2022-10-23T10:20:36;19.30;99.90
3246;DHT22;1635;48.000;10.582;2022-10-23T10:29:13;19.70;99.90
3246;DHT22;1635;48.000;10.582;2022-10-23T10:38:25;20.20;99.90
3246;DHT22;1635;48.000;10.582;2022-10-23T10:41:27;20.50;99.90
3246;DHT22;1635;48.000;10.582;2022-10-23T10:44:06;20.80;99.90
3246;DHT22;1635;48.000;10.582;2022-10-23T10:50:16;21.20;99.90
3246;DHT22;1635;48.000;10.582;2022-10-23T10:56:11;21.80;99.90
3246;DHT22;1635;48.000;10.582;2022-10-23T10:59:03;22.00;99.90
3246;DHT22;1635;48.000;10.582;2022-10-23T11:01:56;22.30;99.90
3246;DHT22;1635;48.000;10.582;2022-10-23T11:04:46;22.40;99.90
3246;DHT22;1635;48.000;10.582;2022-10-23T11:07:24;22.70;99.90
3246;DHT22;1635;48.000;10.582;2022-10-23T11:09:56;22.90;99.90
3246;DHT22;1635;48.000;10.582;2022-10-23T11:12:31;23.00;99.90
3246;DHT22;1635;48.000;10.582;2022-10-23T11:14:58;23.10;99.90
3246;DHT22;1635;48.000;10.582;2022-10-23T11:17:37;23.30;99.90
3246;DHT22;1635;48.000;10.582;2022-10-23T11:20:38;23.60;99.90
3246;DHT22;1635;48.000;10.582;2022-10-23T11:26:40;23.60;99.90
3246;DHT22;1635;48.000;10.582;2022-10-23T11:38:53;25.00;99.90
3246;DHT22;1635;48.000;10.582;2022-10-23T11:41:26;25.40;99.90
3246;DHT22;1635;48.000;10.582;2022-10-23T11:47:38;25.60;99.90
3246;DHT22;1635;48.000;10.582;2022-10-23T11:52:56;26.00;99.90
3246;DHT22;1635;48.000;10.582;2022-10-23T11:55:56;26.10;99.90
3246;DHT22;1635;48.000;10.582;2022-10-23T11:58:40;26.30;99.90
3246;DHT22;1635;48.000;10.582;2022-10-23T12:01:40;26.30;99.90
3246;DHT22;1635;48.000;10.582;2022-10-23T12:04:21;26.50;99.90
3246;DHT22;1635;48.000;10.582;2022-10-23T12:06:59;26.30;99.90
3246;DHT22;1635;48.000;10.582;2022-10-23T12:09:44;26.10;99.90
3246;DHT22;1635;48.000;10.582;2022-10-23T12:15:19;25.70;99.90
3246;DHT22;1635;48.000;10.582;2022-10-23T12:17:47;25.60;99.90
3246;DHT22;1635;48.000;10.582;2022-10-23T12:20:34;25.70;99.90
3246;DHT22;1635;48.000;10.582;2022-10-23T12:26:22;27.60;99.90
3246;DHT22;1635;48.000;10.582;2022-10-23T12:28:57;29.70;99.90
3246;DHT22;1635;48.000;10.582;2022-10-23T12:31:59;30.60;99.90
3246;DHT22;1635;48.000;10.582;2022-10-23T12:39:52;30.40;99.90
3246;DHT22;1635;48.000;10.582;2022-10-23T12:42:28;30.70;99.90
3246;DHT22;1635;48.000;10.582;2022-10-23T12:45:00;30.70;99.90
3246;DHT22;1635;48.000;10.582;2022-10-23T12:47:33;30.30;99.90
3246;DHT22;1635;48.000;10.582;2022-10-23T12:50:01;29.70;99.90
3246;DHT22;1635;48.000;10.582;2022-10-23T12:52:30;29.30;99.90
3246;DHT22;1635;48.000;10.582;2022-10-23T12:55:12;29.50;99.90
3246;DHT22;1635;48.000;10.582;2022-10-23T12:57:45;29.50;99.90
3246;DHT22;1635;48.000;10.582;2022-10-23T13:00:16;29.90;99.90
3246;DHT22;1635;48.000;10.582;2022-10-23T13:03:09;30.00;99.90
3246;DHT22;1635;48.000;10.582;2022-10-23T13:05:37;29.90;99.90
3246;DHT22;1635;48.000;10.582;2022-10-23T13:08:12;29.50;99.90
3246;DHT22;1635;48.000;10.582;2022-10-23T13:11:08;29.10;99.90
3246;DHT22;1635;48.000;10.582;2022-10-23T13:13:43;29.00;99.90
3246;DHT22;1635;48.000;10.582;2022-10-23T13:16:22;28.50;99.90
3246;DHT22;1635;48.000;10.582;2022-10-23T13:18:59;28.10;99.90
3246;DHT22;1635;48.000;10.582;2022-10-23T13:21:31;27.60;99.90
3246;DHT22;1635;48.000;10.582;2022-10-23T13:24:19;27.20;99.90
3246;DHT22;1635;48.000;10.582;2022-10-23T13:26:51;26.80;99.90
3246;DHT22;1635;48.000;10.582;2022-10-23T13:29:29;26.60;99.90
3246;DHT22;1635;48.000;10.582;2022-10-23T13:32:31;26.30;99.90
3246;DHT22;1635;48.000;10.582;2022-10-23T13:35:03;26.00;99.90
3246;DHT22;1635;48.000;10.582;2022-10-23T13:38:09;25.70;99.90
3246;DHT22;1635;48.000;10.582;2022-10-23T13:40:41;25.70;99.90
3246;DHT22;1635;48.000;10.582;2022-10-23T13:43:15;26.00;99.90
3246;DHT22;1635;48.000;10.582;2022-10-23T13:45:57;26.00;99.90
3246;DHT22;1635;48.000;10.582;2022-10-23T13:48:26;26.40;99.90
3246;DHT22;1635;48.000;10.582;2022-10-23T13:51:05;26.50;99.90
3246;DHT22;1635;48.000;10.582;2022-10-23T13:53:34;26.30;99.90
3246;DHT22;1635;48.000;10.582;2022-10-23T14:00:29;26.80;99.90
3246;DHT22;1635;48.000;10.582;2022-10-23T14:02:57;25.70;99.90
3246;DHT22;1635;48.000;10.582;2022-10-23T14:05:30;25.40;99.90
3246;DHT22;1635;48.000;10.582;2022-10-23T14:08:01;25.00;99.90
3246;DHT22;1635;48.000;10.582;2022-10-23T14:10:31;24.60;99.90
3246;DHT22;1635;48.000;10.582;2022-10-23T14:13:00;24.10;99.90
3246;DHT22;1635;48.000;10.582;2022-10-23T14:15:31;23.70;99.90
3246;DHT22;1635;48.000;10.582;2022-10-23T14:18:04;23.30;99.90
3246;DHT22;1635;48.000;10.582;2022-10-23T14:20:37;22.90;99.90
3246;DHT22;1635;48.000;10.582;2022-10-23T14:23:04;22.70;99.90
3246;DHT22;1635;48.000;10.582;2022-10-23T14:25:34;22.60;99.90
3246;DHT22;1635;48.000;10.582;2022-10-23T14:28:04;22.50;99.90
3246;DHT22;1635;48.000;10.582;2022-10-23T14:30:49;22.40;99.90
3246;DHT22;1635;48.000;10.582;2022-10-23T14:33:19;22.20;99.90
3246;DHT22;1635;48.000;10.582;2022-10-23T14:35:49;22.10;99.90
3246;DHT22;1635;48.000;10.582;2022-10-23T14:38:17;21.90;99.90
3246;DHT22;1635;48.000;10.582;2022-10-23T14:40:46;21.80;99.90
3246;DHT22;1635;48.000;10.582;2022-10-23T14:43:16;21.70;99.90
3246;DHT22;1635;48.000;10.582;2022-10-23T14:45:47;21.50;99.90
3246;DHT22;1635;48.000;10.582;2022-10-23T14:48:16;21.40;99.90
3246;DHT22;1635;48.000;10.582;2022-10-23T14:50:51;21.40;99.90
3246;DHT22;1635;48.000;10.582;2022-10-23T14:53:25;21.40;99.90
3246;DHT22;1635;48.000;10.582;2022-10-23T14:56:04;21.20;99.90
3246;DHT22;1635;48.000;10.582;2022-10-23T14:58:33;21.10;99.90
3246;DHT22;1635;48.000;10.582;2022-10-23T15:01:04;20.90;99.90
3246;DHT22;1635;48.000;10.582;2022-10-23T15:03:33;20.80;99.90
3246;DHT22;1635;48.000;10.582;2022-10-23T15:06:01;20.80;99.90
3246;DHT22;1635;48.000;10.582;2022-10-23T15:08:35;20.70;99.90
3246;DHT22;1635;48.000;10.582;2022-10-23T15:11:05;20.60;99.90
3246;DHT22;1635;48.000;10.582;2022-10-23T15:13:42;20.50;99.90
3246;DHT22;1635;48.000;10.582;2022-10-23T15:16:10;20.30;99.90
3246;DHT22;1635;48.000;10.582;2022-10-23T15:18:41;20.20;99.90
3246;DHT22;1635;48.000;10.582;2022-10-23T15:21:09;20.10;99.90
3246;DHT22;1635;48.000;10.582;2022-10-23T15:23:40;19.90;99.90
3246;DHT22;1635;48.000;10.582;2022-10-23T15:26:12;19.50;99.90
3246;DHT22;1635;48.000;10.582;2022-10-23T15:28:41;19.30;99.90
3246;DHT22;1635;48.000;10.582;2022-10-23T15:34:09;19.00;99.90
3246;DHT22;1635;48.000;10.582;2022-10-23T15:36:38;18.90;99.90
3246;DHT22;1635;48.000;10.582;2022-10-23T15:39:09;18.80;99.90
3246;DHT22;1635;48.000;10.582;2022-10-23T15:41:39;18.70;99.90
3246;DHT22;1635;48.000;10.582;2022-10-23T15:44:12;18.40;99.90
3246;DHT22;1635;48.000;10.582;2022-10-23T15:46:45;18.20;99.90
3246;DHT22;1635;48.000;10.582;2022-10-23T15:49:17;18.10;99.90
3246;DHT22;1635;48.000;10.582;2022-10-23T15:51:50;18.00;99.90
3246;DHT22;1635;48.000;10.582;2022-10-23T15:54:21;17.90;99.90
3246;DHT22;1635;48.000;10.582;2022-10-23T15:56:51;17.80;99.90
3246;DHT22;1635;48.000;10.582;2022-10-23T15:59:23;17.70;99.90
3246;DHT22;1635;48.000;10.582;2022-10-23T16:01:53;17.60;99.90
3246;DHT22;1635;48.000;10.582;2022-10-23T16:04:23;17.40;99.90
3246;DHT22;1635;48.000;10.582;2022-10-23T16:06:52;17.30;99.90
3246;DHT22;1635;48.000;10.582;2022-10-23T16:09:22;17.20;99.90
3246;DHT22;1635;48.000;10.582;2022-10-23T16:11:53;17.00;99.90
3246;DHT22;1635;48.000;10.582;2022-10-23T16:14:21;16.90;99.90
3246;DHT22;1635;48.000;10.582;2022-10-23T16:16:52;16.80;99.90
3246;DHT22;1635;48.000;10.582;2022-10-23T16:19:21;16.70;99.90
3246;DHT22;1635;48.000;10.582;2022-10-23T16:21:52;16.60;99.90
3246;DHT22;1635;48.000;10.582;2022-10-23T16:24:21;16.40;99.90
3246;DHT22;1635;48.000;10.582;2022-10-23T16:26:50;16.30;99.90
3246;DHT22;1635;48.000;10.582;2022-10-23T16:29:26;16.20;99.90
3246;DHT22;1635;48.000;10.582;2022-10-23T16:31:56;16.00;99.90
3246;DHT22;1635;48.000;10.582;2022-10-23T16:34:35;15.90;99.90
3246;DHT22;1635;48.000;10.582;2022-10-23T16:37:08;15.70;99.90
3246;DHT22;1635;48.000;10.582;2022-10-23T16:39:48;15.60;99.90
3246;DHT22;1635;48.000;10.582;2022-10-23T16:42:45;15.50;99.90
3246;DHT22;1635;48.000;10.582;2022-10-23T16:45:24;15.60;99.90
3246;DHT22;1635;48.000;10.582;2022-10-23T16:48:01;15.60;99.90
3246;DHT22;1635;48.000;10.582;2022-10-23T16:50:36;15.60;99.90
3246;DHT22;1635;48.000;10.582;2022-10-23T16:53:11;15.60;99.90
3246;DHT22;1635;48.000;10.582;2022-10-23T16:55:52;15.70;99.90
3246;DHT22;1635;48.000;10.582;2022-10-23T16:58:27;15.70;99.90
3246;DHT22;1635;48.000;10.582;2022-10-23T17:01:07;15.70;99.90
3246;DHT22;1635;48.000;10.582;2022-10-23T17:03:46;15.80;99.90
3246;DHT22;1635;48.000;10.582;2022-10-23T17:06:31;15.80;99.90
3246;DHT22;1635;48.000;10.582;2022-10-23T17:09:17;15.80;99.90
3246;DHT22;1635;48.000;10.582;2022-10-23T17:11:51;15.70;99.90
3246;DHT22;1635;48.000;10.582;2022-10-23T17:14:37;15.70;99.90
3246;DHT22;1635;48.000;10.582;2022-10-23T17:17:11;15.60;99.90
3246;DHT22;1635;48.000;10.582;2022-10-23T17:19:46;15.60;99.90
3246;DHT22;1635;48.000;10.582;2022-10-23T17:22:22;15.70;99.90
3246;DHT22;1635;48.000;10.582;2022-10-23T17:25:01;15.80;99.90
3246;DHT22;1635;48.000;10.582;2022-10-23T17:27:35;15.80;99.90
3246;DHT22;1635;48.000;10.582;2022-10-23T17:30:22;15.80;99.90
3246;DHT22;1635;48.000;10.582;2022-10-23T17:33:58;15.80;99.90
3246;DHT22;1635;48.000;10.582;2022-10-23T17:36:14;15.90;99.90
3246;DHT22;1635;48.000;10.582;2022-10-23T17:38:53;15.80;99.90
3246;DHT22;1635;48.000;10.582;2022-10-23T17:41:52;15.80;99.90
3246;DHT22;1635;48.000;10.582;2022-10-23T17:44:24;15.80;99.90
3246;DHT22;1635;48.000;10.582;2022-10-23T17:46:57;15.80;99.90
3246;DHT22;1635;48.000;10.582;2022-10-23T17:49:33;15.70;99.90
3246;DHT22;1635;48.000;10.582;2022-10-23T17:52:24;15.60;99.90
3246;DHT22;1635;48.000;10.582;2022-10-23T17:55:22;15.50;99.90
3246;DHT22;1635;48.000;10.582;2022-10-23T17:57:50;15.30;99.90
3246;DHT22;1635;48.000;10.582;2022-10-23T18:00:27;15.20;99.90
3246;DHT22;1635;48.000;10.582;2022-10-23T18:03:20;15.20;99.90
3246;DHT22;1635;48.000;10.582;2022-10-23T18:06:41;15.10;99.90
3246;DHT22;1635;48.000;10.582;2022-10-23T18:09:20;14.90;99.90
3246;DHT22;1635;48.000;10.582;2022-10-23T18:12:02;14.60;99.90
3246;DHT22;1635;48.000;10.582;2022-10-23T18:15:02;14.50;99.90
3246;DHT22;1635;48.000;10.582;2022-10-23T18:18:06;14.50;99.90
3246;DHT22;1635;48.000;10.582;2022-10-23T18:21:02;14.40;99.90
3246;DHT22;1635;48.000;10.582;2022-10-23T18:24:21;14.30;99.90
3246;DHT22;1635;48.000;10.582;2022-10-23T18:26:57;14.30;99.90
3246;DHT22;1635;48.000;10.582;2022-10-23T18:29:46;14.30;99.90
3246;DHT22;1635;48.000;10.582;2022-10-23T18:32:28;14.40;99.90
3246;DHT22;1635;48.000;10.582;2022-10-23T18:35:03;14.40;99.90
3246;DHT22;1635;48.000;10.582;2022-10-23T18:37:59;14.50;99.90
3246;DHT22;1635;48.000;10.582;2022-10-23T18:40:38;14.50;99.90